createdAt,value
2019-02-28T00:00:47.997Z,0.00
2019-02-28T00:01:47.976Z,0.00
2019-02-28T00:02:47.951Z,0.00
2019-02-28T00:03:47.949Z,0.00
2019-02-28T00:04:47.927Z,0.00
2019-02-28T00:05:47.892Z,0.00
2019-02-28T00:06:47.875Z,0.00
2019-02-28T00:07:49.593Z,0.00
2019-02-28T00:08:47.838Z,0.00
2019-02-28T00:09:47.821Z,0.00
2019-02-28T00:10:47.807Z,0.00
2019-02-28T00:11:47.770Z,0.00
2019-02-28T00:12:48.732Z,0.00
2019-02-28T00:13:47.735Z,0.00
2019-02-28T00:14:47.723Z,0.00
2019-02-28T00:15:47.693Z,0.00
2019-02-28T00:16:47.672Z,0.00
2019-02-28T00:17:47.654Z,0.00
2019-02-28T00:18:50.000Z,0.00
2019-02-28T00:19:47.617Z,0.00
2019-02-28T00:20:47.593Z,0.00
2019-02-28T00:21:47.570Z,0.00
2019-02-28T00:22:49.216Z,0.00
2019-02-28T00:23:47.534Z,0.00
2019-02-28T00:24:47.552Z,0.00
2019-02-28T00:25:47.507Z,0.00
2019-02-28T00:26:47.922Z,0.00
2019-02-28T00:27:47.457Z,0.00
2019-02-28T00:28:47.437Z,0.00
2019-02-28T00:29:48.110Z,0.00
2019-02-28T00:30:47.385Z,0.00
2019-02-28T00:31:50.014Z,0.00
2019-02-28T00:32:47.358Z,0.00
2019-02-28T00:33:47.334Z,0.00
2019-02-28T00:34:47.308Z,0.00
2019-02-28T00:35:47.286Z,0.00
2019-02-28T00:36:50.320Z,0.00
2019-02-28T00:37:47.250Z,0.00
2019-02-28T00:38:47.230Z,0.00
2019-02-28T00:39:47.206Z,0.00
2019-02-28T00:40:47.187Z,0.00
2019-02-28T00:41:47.171Z,0.00
2019-02-28T00:42:48.070Z,0.00
2019-02-28T00:43:47.147Z,0.00
2019-02-28T00:44:47.106Z,0.00
2019-02-28T00:45:47.107Z,0.00
2019-02-28T00:46:47.068Z,0.00
2019-02-28T00:47:47.685Z,0.00
2019-02-28T00:48:47.048Z,0.00
2019-02-28T00:49:47.007Z,0.00
2019-02-28T00:50:46.988Z,0.00
2019-02-28T00:51:46.967Z,0.00
2019-02-28T00:52:46.969Z,0.00
2019-02-28T00:53:46.922Z,0.00
2019-02-28T00:54:46.907Z,0.00
2019-02-28T00:55:47.060Z,0.00
2019-02-28T00:56:51.533Z,0.00
2019-02-28T00:57:46.842Z,0.00
2019-02-28T00:58:46.842Z,0.00
2019-02-28T00:59:46.810Z,0.00
2019-02-28T01:00:46.788Z,0.00
2019-02-28T01:01:46.861Z,0.00
2019-02-28T01:02:52.115Z,0.00
2019-02-28T01:03:46.740Z,0.00
2019-02-28T01:04:46.707Z,0.00
2019-02-28T01:05:46.700Z,0.00
2019-02-28T01:06:46.658Z,0.00
2019-02-28T01:07:48.148Z,0.00
2019-02-28T01:08:46.619Z,0.00
2019-02-28T01:09:46.601Z,0.00
2019-02-28T01:10:46.580Z,0.00
2019-02-28T01:11:46.580Z,0.00
2019-02-28T01:12:46.555Z,0.00
2019-02-28T01:13:46.519Z,0.00
2019-02-28T01:14:47.118Z,0.00
2019-02-28T01:15:46.487Z,0.00
2019-02-28T01:16:46.458Z,0.00
2019-02-28T01:17:46.431Z,0.00
2019-02-28T01:18:46.434Z,0.00
2019-02-28T01:19:46.401Z,0.00
2019-02-28T01:20:50.058Z,0.00
2019-02-28T01:21:46.348Z,0.00
2019-02-28T01:22:46.339Z,0.00
2019-02-28T01:23:46.323Z,0.00
2019-02-28T01:24:47.079Z,0.00
2019-02-28T01:25:46.266Z,0.00
2019-02-28T01:26:46.717Z,0.00
2019-02-28T01:27:46.237Z,0.00
2019-02-28T01:28:46.206Z,0.00
2019-02-28T01:29:46.193Z,0.00
2019-02-28T01:30:46.183Z,0.00
2019-02-28T01:31:46.145Z,0.00
2019-02-28T01:32:49.854Z,0.00
2019-02-28T01:33:46.135Z,0.00
2019-02-28T01:34:46.096Z,0.00
2019-02-28T01:35:46.065Z,0.00
2019-02-28T01:36:48.814Z,0.00
2019-02-28T01:37:46.033Z,0.00
2019-02-28T01:38:46.007Z,0.00
2019-02-28T01:39:45.998Z,0.00
2019-02-28T01:40:45.965Z,0.00
2019-02-28T01:41:45.957Z,0.00
2019-02-28T01:42:45.922Z,0.00
2019-02-28T01:43:45.900Z,0.00
2019-02-28T01:44:45.879Z,0.00
2019-02-28T01:45:45.874Z,0.00
2019-02-28T01:46:48.468Z,0.00
2019-02-28T01:47:45.816Z,0.00
2019-02-28T01:48:45.797Z,0.00
2019-02-28T01:49:45.779Z,0.00
2019-02-28T01:50:45.767Z,0.00
2019-02-28T01:51:45.735Z,0.00
2019-02-28T01:52:46.233Z,0.00
2019-02-28T01:53:45.695Z,0.00
2019-02-28T01:54:45.669Z,0.00
2019-02-28T01:55:45.668Z,0.00
2019-02-28T01:56:45.631Z,0.00
2019-02-28T01:57:45.641Z,0.00
2019-02-28T01:58:47.643Z,0.00
2019-02-28T01:59:45.571Z,0.00
2019-02-28T02:00:45.562Z,0.00
2019-02-28T02:01:45.527Z,0.00
2019-02-28T02:02:45.507Z,0.00
2019-02-28T02:03:45.504Z,0.00
2019-02-28T02:04:45.777Z,0.00
2019-02-28T02:05:48.315Z,0.00
2019-02-28T02:06:45.422Z,0.00
2019-02-28T02:07:45.429Z,0.00
2019-02-28T02:08:45.384Z,0.00
2019-02-28T02:09:46.114Z,0.00
2019-02-28T02:10:45.339Z,0.00
2019-02-28T02:11:45.342Z,0.00
2019-02-28T02:12:45.408Z,0.00
2019-02-28T02:13:45.278Z,0.00
2019-02-28T02:14:45.812Z,0.00
2019-02-28T02:15:45.241Z,0.00
2019-02-28T02:16:45.228Z,0.00
2019-02-28T02:17:45.193Z,0.00
2019-02-28T02:18:45.193Z,0.00
2019-02-28T02:19:45.152Z,0.00
2019-02-28T02:20:45.153Z,0.00
2019-02-28T02:21:45.121Z,0.00
2019-02-28T02:22:45.437Z,0.00
2019-02-28T02:23:45.070Z,0.00
2019-02-28T02:24:45.627Z,0.00
2019-02-28T02:25:45.035Z,0.00
2019-02-28T02:26:45.844Z,0.00
2019-02-28T02:27:44.992Z,0.00
2019-02-28T02:28:44.966Z,0.00
2019-02-28T02:29:44.944Z,0.00
2019-02-28T02:30:50.548Z,0.00
2019-02-28T02:31:44.921Z,0.00
2019-02-28T02:32:44.931Z,0.00
2019-02-28T02:33:50.949Z,0.00
2019-02-28T02:34:44.840Z,0.00
2019-02-28T02:35:44.818Z,0.00
2019-02-28T02:36:44.805Z,0.00
2019-02-28T02:37:44.795Z,0.00
2019-02-28T02:38:44.757Z,0.00
2019-02-28T02:39:44.758Z,0.00
2019-02-28T02:40:44.741Z,0.00
2019-02-28T02:41:44.704Z,0.00
2019-02-28T02:42:48.382Z,0.00
2019-02-28T02:43:44.655Z,0.00
2019-02-28T02:44:44.637Z,0.00
2019-02-28T02:45:44.634Z,0.00
2019-02-28T02:46:44.600Z,0.00
2019-02-28T02:47:44.584Z,0.00
2019-02-28T02:48:44.577Z,0.00
2019-02-28T02:49:44.543Z,0.00
2019-02-28T02:50:44.505Z,0.00
2019-02-28T02:51:49.077Z,0.00
2019-02-28T02:52:44.502Z,0.00
2019-02-28T02:53:44.442Z,0.00
2019-02-28T02:54:44.422Z,0.00
2019-02-28T02:55:44.402Z,0.00
2019-02-28T02:56:44.382Z,0.00
2019-02-28T02:57:50.603Z,0.00
2019-02-28T02:58:44.334Z,0.00
2019-02-28T02:59:44.321Z,0.00
2019-02-28T03:00:49.839Z,0.00
2019-02-28T03:01:44.292Z,0.00
2019-02-28T03:02:44.277Z,0.00
2019-02-28T03:03:44.584Z,0.00
2019-02-28T03:04:44.229Z,0.00
2019-02-28T03:05:44.193Z,0.00
2019-02-28T03:06:45.900Z,0.00
2019-02-28T03:07:44.156Z,0.00
2019-02-28T03:08:44.152Z,0.00
2019-02-28T03:09:44.778Z,0.00
2019-02-28T03:10:44.089Z,0.00
2019-02-28T03:11:44.079Z,0.00
2019-02-28T03:12:44.056Z,0.00
2019-02-28T03:13:44.274Z,0.00
2019-02-28T03:14:44.009Z,0.00
2019-02-28T03:15:43.984Z,0.00
2019-02-28T03:16:43.964Z,0.00
2019-02-28T03:17:47.057Z,0.00
2019-02-28T03:18:43.955Z,0.00
2019-02-28T03:19:43.912Z,0.00
2019-02-28T03:20:43.880Z,0.00
2019-02-28T03:21:51.382Z,0.00
2019-02-28T03:22:43.843Z,0.00
2019-02-28T03:23:43.838Z,0.00
2019-02-28T03:24:50.729Z,0.00
2019-02-28T03:25:43.787Z,0.00
2019-02-28T03:26:43.775Z,0.00
2019-02-28T03:27:43.798Z,0.00
2019-02-28T03:28:43.726Z,0.00
2019-02-28T03:29:44.764Z,0.00
2019-02-28T03:30:43.688Z,0.00
2019-02-28T03:31:54.805Z,0.00
2019-02-28T03:32:43.642Z,0.00
2019-02-28T03:33:43.676Z,0.00
2019-02-28T03:34:54.738Z,0.00
2019-02-28T03:35:44.250Z,0.00
2019-02-28T03:36:43.550Z,0.00
2019-02-28T03:37:44.127Z,0.00
2019-02-28T03:38:48.612Z,0.00
2019-02-28T03:39:43.502Z,0.00
2019-02-28T03:40:43.457Z,0.00
2019-02-28T03:41:43.442Z,0.00
2019-02-28T03:42:43.415Z,0.00
2019-02-28T03:43:44.194Z,0.00
2019-02-28T03:44:43.381Z,0.00
2019-02-28T03:45:43.379Z,0.00
2019-02-28T03:46:47.050Z,0.00
2019-02-28T03:47:43.324Z,0.00
2019-02-28T03:48:43.298Z,0.00
2019-02-28T03:49:48.555Z,0.00
2019-02-28T03:50:43.247Z,0.00
2019-02-28T03:51:43.243Z,0.00
2019-02-28T03:52:44.685Z,0.00
2019-02-28T03:53:43.191Z,0.00
2019-02-28T03:54:43.162Z,0.00
2019-02-28T03:55:43.151Z,0.00
2019-02-28T03:56:43.143Z,0.00
2019-02-28T03:57:43.105Z,0.00
2019-02-28T03:58:43.211Z,0.00
2019-02-28T03:59:43.058Z,0.00
2019-02-28T04:00:43.629Z,0.00
2019-02-28T04:01:45.693Z,0.00
2019-02-28T04:02:42.997Z,0.00
2019-02-28T04:03:42.979Z,0.00
2019-02-28T04:04:48.401Z,0.00
2019-02-28T04:05:42.934Z,0.00
2019-02-28T04:06:42.915Z,0.00
2019-02-28T04:07:42.916Z,0.00
2019-02-28T04:08:42.882Z,0.00
2019-02-28T04:09:44.226Z,0.00
2019-02-28T04:10:42.844Z,0.00
2019-02-28T04:11:42.807Z,0.00
2019-02-28T04:12:45.911Z,0.00
2019-02-28T04:13:42.784Z,0.00
2019-02-28T04:14:42.746Z,0.00
2019-02-28T04:15:49.866Z,0.00
2019-02-28T04:16:42.702Z,0.00
2019-02-28T04:17:42.684Z,0.00
2019-02-28T04:18:46.153Z,0.00
2019-02-28T04:19:42.641Z,0.00
2019-02-28T04:20:42.622Z,0.00
2019-02-28T04:21:46.271Z,0.00
2019-02-28T04:22:42.576Z,0.00
2019-02-28T04:23:42.574Z,0.00
2019-02-28T04:24:46.306Z,0.00
2019-02-28T04:25:42.512Z,0.00
2019-02-28T04:26:42.490Z,0.00
2019-02-28T04:27:42.479Z,0.00
2019-02-28T04:28:42.448Z,0.00
2019-02-28T04:29:42.424Z,0.00
2019-02-28T04:30:43.833Z,0.00
2019-02-28T04:31:42.382Z,0.00
2019-02-28T04:32:42.360Z,0.00
2019-02-28T04:33:42.342Z,0.00
2019-02-28T04:34:45.577Z,0.00
2019-02-28T04:35:42.296Z,0.00
2019-02-28T04:36:42.306Z,0.00
2019-02-28T04:37:46.461Z,0.00
2019-02-28T04:38:42.230Z,0.00
2019-02-28T04:39:42.212Z,0.00
2019-02-28T04:40:42.190Z,0.00
2019-02-28T04:41:42.169Z,0.00
2019-02-28T04:42:42.161Z,0.00
2019-02-28T04:43:44.380Z,0.00
2019-02-28T04:44:43.103Z,0.00
2019-02-28T04:45:42.085Z,0.00
2019-02-28T04:46:42.085Z,0.00
2019-02-28T04:47:42.066Z,0.00
2019-02-28T04:48:42.022Z,0.00
2019-02-28T04:49:41.998Z,0.00
2019-02-28T04:50:41.978Z,0.00
2019-02-28T04:51:41.958Z,0.00
2019-02-28T04:52:46.804Z,0.00
2019-02-28T04:53:42.633Z,0.00
2019-02-28T04:54:41.897Z,0.00
2019-02-28T04:55:41.906Z,0.00
2019-02-28T04:56:42.357Z,0.00
2019-02-28T04:57:41.838Z,0.00
2019-02-28T04:58:41.832Z,0.00
2019-02-28T04:59:41.787Z,0.00
2019-02-28T05:00:41.769Z,0.00
2019-02-28T05:01:45.205Z,0.00
2019-02-28T05:02:41.729Z,0.00
2019-02-28T05:03:41.716Z,0.00
2019-02-28T05:04:41.706Z,0.00
2019-02-28T05:05:46.455Z,0.00
2019-02-28T05:06:41.648Z,0.00
2019-02-28T05:07:41.622Z,0.00
2019-02-28T05:08:41.600Z,0.00
2019-02-28T05:09:41.578Z,0.00
2019-02-28T05:10:41.578Z,0.00
2019-02-28T05:11:41.537Z,0.00
2019-02-28T05:12:41.517Z,0.00
2019-02-28T05:13:41.495Z,0.00
2019-02-28T05:14:41.486Z,0.00
2019-02-28T05:15:41.454Z,0.00
2019-02-28T05:16:46.886Z,0.00
2019-02-28T05:17:41.431Z,0.00
2019-02-28T05:18:41.388Z,0.00
2019-02-28T05:19:41.367Z,0.00
2019-02-28T05:20:44.957Z,0.00
2019-02-28T05:21:41.325Z,0.00
2019-02-28T05:22:41.343Z,0.00
2019-02-28T05:23:41.284Z,0.00
2019-02-28T05:24:42.681Z,0.00
2019-02-28T05:25:41.244Z,0.00
2019-02-28T05:26:41.221Z,0.00
2019-02-28T05:27:41.210Z,0.00
2019-02-28T05:28:41.390Z,0.00
2019-02-28T05:29:43.906Z,0.00
2019-02-28T05:30:41.607Z,0.00
2019-02-28T05:31:41.159Z,0.00
2019-02-28T05:32:41.102Z,0.00
2019-02-28T05:33:42.077Z,0.00
2019-02-28T05:34:41.057Z,0.00
2019-02-28T05:35:41.027Z,0.00
2019-02-28T05:36:41.005Z,0.00
2019-02-28T05:37:46.843Z,0.00
2019-02-28T05:38:40.965Z,0.00
2019-02-28T05:39:40.974Z,0.00
2019-02-28T05:40:41.545Z,0.00
2019-02-28T05:41:40.906Z,0.00
2019-02-28T05:42:40.881Z,0.00
2019-02-28T05:43:40.877Z,0.00
2019-02-28T05:44:40.980Z,0.00
2019-02-28T05:45:40.833Z,0.00
2019-02-28T05:46:40.797Z,0.00
2019-02-28T05:47:46.312Z,0.00
2019-02-28T05:48:40.755Z,0.00
2019-02-28T05:49:41.786Z,0.00
2019-02-28T05:50:41.656Z,0.00
2019-02-28T05:51:40.700Z,0.00
2019-02-28T05:52:40.675Z,4.00
2019-02-28T05:53:42.441Z,0.00
2019-02-28T05:54:40.648Z,0.00
2019-02-28T05:55:40.626Z,4.00
2019-02-28T05:56:40.590Z,4.00
2019-02-28T05:57:43.398Z,4.00
2019-02-28T05:58:40.578Z,4.00
2019-02-28T05:59:40.543Z,4.00
2019-02-28T06:00:40.514Z,4.00
2019-02-28T06:01:43.588Z,8.00
2019-02-28T06:02:40.471Z,8.00
2019-02-28T06:03:40.438Z,12.00
2019-02-28T06:04:40.425Z,12.00
2019-02-28T06:05:40.412Z,16.00
2019-02-28T06:06:40.380Z,20.00
2019-02-28T06:07:40.376Z,24.00
2019-02-28T06:08:40.338Z,28.00
2019-02-28T06:09:40.312Z,28.00
2019-02-28T06:10:40.292Z,32.00
2019-02-28T06:11:40.268Z,40.00
2019-02-28T06:12:40.430Z,44.00
2019-02-28T06:13:40.245Z,52.00
2019-02-28T06:14:40.211Z,56.00
2019-02-28T06:15:40.190Z,64.00
2019-02-28T06:16:40.166Z,72.00
2019-02-28T06:17:40.213Z,80.00
2019-02-28T06:18:41.190Z,92.00
2019-02-28T06:19:43.218Z,100.00
2019-02-28T06:20:40.078Z,108.00
2019-02-28T06:21:40.057Z,120.00
2019-02-28T06:22:40.090Z,132.00
2019-02-28T06:23:40.709Z,140.00
2019-02-28T06:24:40.009Z,156.00
2019-02-28T06:25:39.979Z,168.00
2019-02-28T06:26:39.960Z,180.00
2019-02-28T06:27:41.806Z,196.00
2019-02-28T06:28:39.905Z,212.00
2019-02-28T06:29:39.901Z,224.00
2019-02-28T06:30:41.536Z,240.00
2019-02-28T06:31:40.633Z,256.00
2019-02-28T06:32:39.827Z,272.00
2019-02-28T06:33:39.799Z,288.00
2019-02-28T06:34:42.248Z,308.00
2019-02-28T06:35:40.616Z,324.00
2019-02-28T06:36:39.735Z,340.00
2019-02-28T06:37:39.712Z,360.00
2019-02-28T06:38:39.696Z,372.00
2019-02-28T06:39:39.674Z,392.00
2019-02-28T06:40:39.673Z,412.00
2019-02-28T06:41:40.734Z,428.00
2019-02-28T06:42:39.622Z,444.00
2019-02-28T06:43:39.590Z,464.00
2019-02-28T06:44:39.581Z,484.00
2019-02-28T06:45:39.567Z,504.00
2019-02-28T06:46:39.994Z,524.00
2019-02-28T06:47:39.503Z,544.00
2019-02-28T06:48:39.479Z,564.00
2019-02-28T06:49:41.894Z,588.00
2019-02-28T06:50:39.452Z,604.00
2019-02-28T06:51:39.415Z,624.00
2019-02-28T06:52:39.398Z,644.00
2019-02-28T06:53:39.370Z,668.00
2019-02-28T06:54:40.115Z,684.00
2019-02-28T06:55:40.162Z,708.00
2019-02-28T06:56:39.314Z,728.00
2019-02-28T06:57:39.314Z,744.00
2019-02-28T06:58:39.266Z,764.00
2019-02-28T06:59:39.740Z,788.00
2019-02-28T07:00:39.228Z,812.00
2019-02-28T07:01:39.228Z,832.00
2019-02-28T07:02:39.190Z,856.00
2019-02-28T07:03:39.889Z,872.00
2019-02-28T07:04:39.135Z,892.00
2019-02-28T07:05:39.117Z,912.00
2019-02-28T07:06:39.093Z,924.00
2019-02-28T07:07:39.103Z,944.00
2019-02-28T07:08:39.052Z,968.00
2019-02-28T07:09:39.024Z,988.00
2019-02-28T07:10:41.465Z,1000.00
2019-02-28T07:11:38.994Z,1020.00
2019-02-28T07:12:38.967Z,1036.00
2019-02-28T07:13:40.157Z,1056.00
2019-02-28T07:14:38.920Z,1080.00
2019-02-28T07:15:38.911Z,1104.00
2019-02-28T07:16:38.881Z,1124.00
2019-02-28T07:17:42.533Z,1140.00
2019-02-28T07:18:38.852Z,1164.00
2019-02-28T07:19:38.835Z,1176.00
2019-02-28T07:20:38.798Z,1196.00
2019-02-28T07:21:42.948Z,1220.00
2019-02-28T07:22:40.112Z,1244.00
2019-02-28T07:23:38.741Z,1260.00
2019-02-28T07:24:38.738Z,1280.00
2019-02-28T07:25:38.711Z,1304.00
2019-02-28T07:26:38.666Z,1324.00
2019-02-28T07:27:38.647Z,1352.00
2019-02-28T07:28:38.626Z,1372.00
2019-02-28T07:29:39.171Z,1392.00
2019-02-28T07:30:38.600Z,1408.00
2019-02-28T07:31:38.559Z,1428.00
2019-02-28T07:32:38.542Z,1456.00
2019-02-28T07:33:41.315Z,1480.00
2019-02-28T07:34:38.502Z,1504.00
2019-02-28T07:35:38.502Z,1528.00
2019-02-28T07:36:38.466Z,1568.00
2019-02-28T07:37:38.436Z,1608.00
2019-02-28T07:38:38.431Z,1656.00
2019-02-28T07:39:40.446Z,1716.00
2019-02-28T07:40:38.388Z,1784.00
2019-02-28T07:41:41.338Z,1852.00
2019-02-28T07:42:38.592Z,1908.00
2019-02-28T07:43:38.333Z,1948.00
2019-02-28T07:44:38.288Z,1988.00
2019-02-28T07:45:38.286Z,2028.00
2019-02-28T07:46:38.802Z,2064.00
2019-02-28T07:47:38.230Z,2064.00
2019-02-28T07:48:38.210Z,2044.00
2019-02-28T07:49:38.185Z,2032.00
2019-02-28T07:50:38.168Z,2020.00
2019-02-28T07:51:38.147Z,2016.00
2019-02-28T07:52:38.177Z,2016.00
2019-02-28T07:53:41.007Z,2016.00
2019-02-28T07:54:38.089Z,2032.00
2019-02-28T07:55:38.064Z,2072.00
2019-02-28T07:56:42.653Z,2112.00
2019-02-28T07:57:38.039Z,2148.00
2019-02-28T07:58:38.003Z,2184.00
2019-02-28T07:59:42.445Z,2212.00
2019-02-28T08:00:37.964Z,2248.00
2019-02-28T08:01:37.953Z,2288.00
2019-02-28T08:02:39.130Z,2324.00
2019-02-28T08:03:37.897Z,2364.00
2019-02-28T08:04:37.898Z,2304.00
2019-02-28T08:05:37.878Z,2244.00
2019-02-28T08:06:39.391Z,2288.00
2019-02-28T08:07:37.822Z,2292.00
2019-02-28T08:08:37.803Z,2228.00
2019-02-28T08:09:40.682Z,2244.00
2019-02-28T08:10:37.759Z,2252.00
2019-02-28T08:11:37.752Z,2268.00
2019-02-28T08:12:37.726Z,2256.00
2019-02-28T08:13:38.575Z,2328.00
2019-02-28T08:14:37.676Z,2396.00
2019-02-28T08:15:37.661Z,2532.00
2019-02-28T08:16:37.637Z,2580.00
2019-02-28T08:17:40.682Z,2596.00
2019-02-28T08:18:37.613Z,2680.00
2019-02-28T08:19:37.576Z,2768.00
2019-02-28T08:20:37.553Z,2848.00
2019-02-28T08:21:43.965Z,2948.00
2019-02-28T08:22:37.522Z,3000.00
2019-02-28T08:23:37.701Z,3044.00
2019-02-28T08:24:37.476Z,3048.00
2019-02-28T08:25:39.712Z,3000.00
2019-02-28T08:26:37.449Z,2980.00
2019-02-28T08:27:37.456Z,2964.00
2019-02-28T08:28:37.393Z,2960.00
2019-02-28T08:29:37.383Z,2880.00
2019-02-28T08:30:37.355Z,2868.00
2019-02-28T08:31:37.380Z,2820.00
2019-02-28T08:32:42.377Z,2792.00
2019-02-28T08:33:37.298Z,2792.00
2019-02-28T08:34:37.283Z,2788.00
2019-02-28T08:35:37.261Z,2792.00
2019-02-28T08:36:37.236Z,2724.00
2019-02-28T08:37:37.233Z,2616.00
2019-02-28T08:38:37.197Z,2488.00
2019-02-28T08:39:37.178Z,2496.00
2019-02-28T08:40:37.172Z,2816.00
2019-02-28T08:41:37.141Z,2928.00
2019-02-28T08:42:39.666Z,3248.00
2019-02-28T08:43:37.103Z,3352.00
2019-02-28T08:44:37.102Z,3128.00
2019-02-28T08:45:37.067Z,3404.00
2019-02-28T08:46:37.050Z,3308.00
2019-02-28T08:47:37.027Z,3296.00
2019-02-28T08:48:37.039Z,3244.00
2019-02-28T08:49:42.190Z,3384.00
2019-02-28T08:50:36.966Z,3396.00
2019-02-28T08:51:36.957Z,3416.00
2019-02-28T08:52:37.587Z,3592.00
2019-02-28T08:53:36.938Z,3500.00
2019-02-28T08:54:36.888Z,3480.00
2019-02-28T08:55:38.459Z,3184.00
2019-02-28T08:56:36.853Z,3428.00
2019-02-28T08:57:37.635Z,3476.00
2019-02-28T08:58:37.626Z,3528.00
2019-02-28T08:59:36.814Z,3724.00
2019-02-28T09:00:37.704Z,3824.00
2019-02-28T09:01:40.104Z,4008.00
2019-02-28T09:02:36.743Z,3940.00
2019-02-28T09:03:36.724Z,3848.00
2019-02-28T09:04:41.220Z,3780.00
2019-02-28T09:05:36.687Z,3940.00
2019-02-28T09:06:37.827Z,3892.00
2019-02-28T09:07:36.646Z,3920.00
2019-02-28T09:08:36.628Z,3720.00
2019-02-28T09:09:36.612Z,3776.00
2019-02-28T09:10:37.498Z,3764.00
2019-02-28T09:11:36.588Z,3416.00
2019-02-28T09:12:36.549Z,3844.00
2019-02-28T09:13:36.535Z,3396.00
2019-02-28T09:14:36.515Z,3332.00
2019-02-28T09:15:36.512Z,3348.00
2019-02-28T09:16:36.630Z,3396.00
2019-02-28T09:17:37.830Z,3328.00
2019-02-28T09:18:36.440Z,3460.00
2019-02-28T09:19:36.939Z,3652.00
2019-02-28T09:20:36.403Z,4312.00
2019-02-28T09:21:36.406Z,4852.00
2019-02-28T09:22:36.365Z,4468.00
2019-02-28T09:23:37.730Z,3776.00
2019-02-28T09:24:36.338Z,3628.00
2019-02-28T09:25:36.309Z,3420.00
2019-02-28T09:26:36.317Z,3204.00
2019-02-28T09:27:38.828Z,3336.00
2019-02-28T09:28:36.277Z,4040.00
2019-02-28T09:29:36.234Z,3872.00
2019-02-28T09:30:36.219Z,4312.00
2019-02-28T09:31:38.878Z,4696.00
2019-02-28T09:32:36.182Z,4792.00
2019-02-28T09:33:36.180Z,4636.00
2019-02-28T09:34:36.152Z,4824.00
2019-02-28T09:35:36.126Z,4384.00
2019-02-28T09:36:36.113Z,4184.00
2019-02-28T09:37:36.092Z,3992.00
2019-02-28T09:38:36.097Z,4160.00
2019-02-28T09:39:36.059Z,3652.00
2019-02-28T09:40:36.040Z,3724.00
2019-02-28T09:41:36.434Z,3656.00
2019-02-28T09:42:36.006Z,3560.00
2019-02-28T09:43:35.983Z,3404.00
2019-02-28T09:44:35.984Z,3264.00
2019-02-28T09:45:35.949Z,3368.00
2019-02-28T09:46:35.929Z,3536.00
2019-02-28T09:47:35.915Z,3764.00
2019-02-28T09:48:37.099Z,3940.00
2019-02-28T09:49:35.903Z,4140.00
2019-02-28T09:50:35.859Z,4376.00
2019-02-28T09:51:35.842Z,4668.00
2019-02-28T09:52:41.317Z,4720.00
2019-02-28T09:53:35.800Z,4780.00
2019-02-28T09:54:35.809Z,4920.00
2019-02-28T09:55:35.769Z,5160.00
2019-02-28T09:56:35.761Z,5248.00
2019-02-28T09:57:35.736Z,5188.00
2019-02-28T09:58:35.713Z,5352.00
2019-02-28T09:59:37.874Z,5560.00
2019-02-28T10:00:35.702Z,5660.00
2019-02-28T10:01:35.693Z,6080.00
2019-02-28T10:02:35.650Z,6108.00
2019-02-28T10:03:35.628Z,6148.00
2019-02-28T10:04:35.608Z,6220.00
2019-02-28T10:05:38.949Z,6284.00
2019-02-28T10:06:35.602Z,6196.00
2019-02-28T10:07:35.554Z,6392.00
2019-02-28T10:08:36.630Z,6404.00
2019-02-28T10:09:35.524Z,6564.00
2019-02-28T10:10:35.501Z,6564.00
2019-02-28T10:11:35.487Z,6484.00
2019-02-28T10:12:35.492Z,6480.00
2019-02-28T10:13:35.455Z,6588.00
2019-02-28T10:14:35.428Z,6880.00
2019-02-28T10:15:38.547Z,6504.00
2019-02-28T10:16:35.392Z,6396.00
2019-02-28T10:17:35.399Z,6636.00
2019-02-28T10:18:38.476Z,6852.00
2019-02-28T10:19:44.704Z,6700.00
2019-02-28T10:20:35.325Z,6788.00
2019-02-28T10:21:36.494Z,6948.00
2019-02-28T10:22:35.296Z,6884.00
2019-02-28T10:23:35.294Z,6840.00
2019-02-28T10:24:35.262Z,6816.00
2019-02-28T10:25:41.029Z,6836.00
2019-02-28T10:26:35.233Z,6892.00
2019-02-28T10:27:35.207Z,6900.00
2019-02-28T10:28:35.215Z,6840.00
2019-02-28T10:29:35.194Z,6860.00
2019-02-28T10:30:35.162Z,6856.00
2019-02-28T10:31:38.190Z,6800.00
2019-02-28T10:32:35.128Z,6856.00
2019-02-28T10:33:35.101Z,6788.00
2019-02-28T10:34:35.463Z,6704.00
2019-02-28T10:35:36.797Z,6784.00
2019-02-28T10:36:35.062Z,6880.00
2019-02-28T10:37:35.680Z,6960.00
2019-02-28T10:38:35.023Z,7168.00
2019-02-28T10:39:35.010Z,7260.00
2019-02-28T10:40:35.010Z,7384.00
2019-02-28T10:41:34.968Z,7596.00
2019-02-28T10:42:36.967Z,7604.00
2019-02-28T10:43:34.936Z,7604.00
2019-02-28T10:44:34.924Z,7560.00
2019-02-28T10:45:34.910Z,7536.00
2019-02-28T10:46:36.084Z,7560.00
2019-02-28T10:47:34.874Z,7728.00
2019-02-28T10:48:35.289Z,7984.00
2019-02-28T10:49:34.840Z,8164.00
2019-02-28T10:50:34.849Z,8092.00
2019-02-28T10:51:34.802Z,7816.00
2019-02-28T10:52:34.816Z,7588.00
2019-02-28T10:53:36.224Z,7504.00
2019-02-28T10:54:34.770Z,7404.00
2019-02-28T10:55:34.740Z,7456.00
2019-02-28T10:56:34.740Z,7420.00
2019-02-28T10:57:37.181Z,7384.00
2019-02-28T10:58:34.688Z,7452.00
2019-02-28T10:59:34.685Z,7576.00
2019-02-28T11:00:34.656Z,7688.00
2019-02-28T11:01:34.656Z,8088.00
2019-02-28T11:02:34.643Z,8228.00
2019-02-28T11:03:34.604Z,8276.00
2019-02-28T11:04:34.592Z,8616.00
2019-02-28T11:05:34.568Z,8796.00
2019-02-28T11:06:34.551Z,9092.00
2019-02-28T11:07:37.882Z,8808.00
2019-02-28T11:08:34.532Z,8732.00
2019-02-28T11:09:34.515Z,8576.00
2019-02-28T11:10:35.529Z,8236.00
2019-02-28T11:11:34.471Z,8324.00
2019-02-28T11:12:34.463Z,8088.00
2019-02-28T11:13:34.457Z,8040.00
2019-02-28T11:14:35.518Z,8968.00
2019-02-28T11:15:34.404Z,9248.00
2019-02-28T11:16:36.089Z,9132.00
2019-02-28T11:17:34.404Z,9076.00
2019-02-28T11:18:36.387Z,8340.00
2019-02-28T11:19:34.339Z,8256.00
2019-02-28T11:20:34.328Z,8284.00
2019-02-28T11:21:34.315Z,8688.00
2019-02-28T11:22:36.587Z,8688.00
2019-02-28T11:23:34.295Z,8992.00
2019-02-28T11:24:34.262Z,9652.00
2019-02-28T11:25:35.567Z,10148.00
2019-02-28T11:26:34.227Z,9920.00
2019-02-28T11:27:34.241Z,10232.00
2019-02-28T11:28:34.202Z,9996.00
2019-02-28T11:29:35.195Z,10256.00
2019-02-28T11:30:36.060Z,9860.00
2019-02-28T11:31:34.151Z,9712.00
2019-02-28T11:32:34.137Z,9972.00
2019-02-28T11:33:36.523Z,9688.00
2019-02-28T11:34:34.121Z,9396.00
2019-02-28T11:35:34.096Z,9476.00
2019-02-28T11:36:34.935Z,9544.00
2019-02-28T11:37:34.069Z,9552.00
2019-02-28T11:38:34.056Z,9988.00
2019-02-28T11:39:34.056Z,9084.00
2019-02-28T11:40:34.019Z,8624.00
2019-02-28T11:41:34.027Z,8456.00
2019-02-28T11:42:33.991Z,8564.00
2019-02-28T11:43:37.376Z,8468.00
2019-02-28T11:44:33.961Z,7300.00
2019-02-28T11:45:33.950Z,5644.00
2019-02-28T11:46:36.566Z,6588.00
2019-02-28T11:47:33.913Z,7380.00
2019-02-28T11:48:33.913Z,8236.00
2019-02-28T11:49:33.886Z,9652.00
2019-02-28T11:50:33.868Z,9912.00
2019-02-28T11:51:33.866Z,9968.00
2019-02-28T11:52:33.866Z,10704.00
2019-02-28T11:53:39.262Z,9388.00
2019-02-28T11:54:33.819Z,9300.00
2019-02-28T11:55:33.831Z,9340.00
2019-02-28T11:56:33.775Z,9336.00
2019-02-28T11:57:33.777Z,9236.00
2019-02-28T11:58:33.777Z,9116.00
2019-02-28T11:59:33.754Z,9132.00
2019-02-28T12:00:35.680Z,8940.00
2019-02-28T12:01:33.730Z,9068.00
2019-02-28T12:02:33.695Z,9004.00
2019-02-28T12:03:35.430Z,9124.00
2019-02-28T12:04:33.666Z,9768.00
2019-02-28T12:05:33.660Z,9320.00
2019-02-28T12:06:33.672Z,9120.00
2019-02-28T12:07:34.882Z,9504.00
2019-02-28T12:08:33.628Z,10004.00
2019-02-28T12:09:33.596Z,9736.00
2019-02-28T12:10:33.598Z,9632.00
2019-02-28T12:11:36.437Z,9704.00
2019-02-28T12:12:33.577Z,9736.00
2019-02-28T12:13:33.571Z,9924.00
2019-02-28T12:14:33.533Z,10220.00
2019-02-28T12:15:33.517Z,9556.00
2019-02-28T12:16:35.226Z,9512.00
2019-02-28T12:17:33.486Z,9656.00
2019-02-28T12:18:33.481Z,9528.00
2019-02-28T12:19:33.482Z,9372.00
2019-02-28T12:20:33.450Z,11348.00
2019-02-28T12:21:37.613Z,10008.00
2019-02-28T12:22:33.415Z,10616.00
2019-02-28T12:23:33.408Z,10208.00
2019-02-28T12:24:33.399Z,11280.00
2019-02-28T12:25:33.403Z,11076.00
2019-02-28T12:26:33.375Z,9216.00
2019-02-28T12:27:33.355Z,10452.00
2019-02-28T12:28:35.167Z,9104.00
2019-02-28T12:29:33.329Z,9340.00
2019-02-28T12:30:33.319Z,9664.00
2019-02-28T12:31:35.782Z,9360.00
2019-02-28T12:32:33.290Z,9600.00
2019-02-28T12:33:33.278Z,9632.00
2019-02-28T12:34:33.274Z,9792.00
2019-02-28T12:35:40.064Z,9780.00
2019-02-28T12:36:34.210Z,11036.00
2019-02-28T12:37:34.420Z,9760.00
2019-02-28T12:38:33.210Z,10676.00
2019-02-28T12:39:35.955Z,10668.00
2019-02-28T12:40:33.207Z,12036.00